METAR Data
IDs: Format: Raw Decoded Include TAF

Data at: 1948 UTC 02 Oct 2022

METAR for:KOCQ (Oconto/Blake Mem, WI, US)
Text:KOCQ 021935Z AUTO 10006KT 10SM CLR 16/10 A3042 RMK AO1 T01600096
Temperature: 16.0°C ( 61°F)
Dewpoint: 9.6°C ( 49°F) [RH = 66%]
Pressure (altimeter):30.42 inches Hg (1030.2 mb)
Winds:from the E (100 degrees) at 7 MPH (6 knots; 3.1 m/s)
Visibility:10 or more sm (16+ km)
Ceiling:at least 12,000 feet AGL
Clouds:sky clear below 12,000 feet AGL
QC Flag:automated observation with no human augmentation
Text:KOCQ 021915Z AUTO 10005KT 10SM CLR 16/09 A3043 RMK AO1 T01590093
Temperature: 15.9°C ( 61°F)
Dewpoint: 9.3°C ( 49°F) [RH = 65%]
Pressure (altimeter):30.43 inches Hg (1030.6 mb)
Winds:from the E (100 degrees) at 6 MPH (5 knots; 2.6 m/s)
Visibility:10 or more sm (16+ km)
Ceiling:at least 12,000 feet AGL
Clouds:sky clear below 12,000 feet AGL
QC Flag:automated observation with no human augmentation
Text:KOCQ 021855Z AUTO 09006KT 050V110 10SM CLR 16/09 A3043 RMK AO1 T01580093
Temperature: 15.8°C ( 60°F)
Dewpoint: 9.3°C ( 49°F) [RH = 65%]
Pressure (altimeter):30.43 inches Hg (1030.6 mb)
Winds:from the E (90 degrees) at 7 MPH (6 knots; 3.1 m/s)
Visibility:10 or more sm (16+ km)
Ceiling:at least 12,000 feet AGL
Clouds:sky clear below 12,000 feet AGL
QC Flag:automated observation with no human augmentation
Text:KOCQ 021815Z AUTO 07008KT 10SM CLR 16/10 A3045 RMK AO1 T01550096
Temperature: 15.5°C ( 60°F)
Dewpoint: 9.6°C ( 49°F) [RH = 68%]
Pressure (altimeter):30.45 inches Hg (1031.2 mb)
Winds:from the ENE (70 degrees) at 9 MPH (8 knots; 4.1 m/s)
Visibility:10 or more sm (16+ km)
Ceiling:at least 12,000 feet AGL
Clouds:sky clear below 12,000 feet AGL
QC Flag:automated observation with no human augmentation
Text:KOCQ 021755Z AUTO 05006KT 10SM SCT023 15/09 A3046 RMK AO1 T01510092 10153 20111
Temperature: 15.1°C ( 59°F)
Dewpoint: 9.2°C ( 49°F) [RH = 68%]
Pressure (altimeter):30.46 inches Hg (1031.6 mb)
Winds:from the NE (50 degrees) at 7 MPH (6 knots; 3.1 m/s)
Visibility:10 or more sm (16+ km)
Ceiling:at least 12,000 feet AGL
Clouds: scattered clouds at 2300 feet AGL
QC Flag:automated observation with no human augmentation
Text:KOCQ 021735Z AUTO 08005KT 10SM OVC023 15/09 A3046 RMK AO1 T01470093
Temperature: 14.7°C ( 58°F)
Dewpoint: 9.3°C ( 49°F) [RH = 70%]
Pressure (altimeter):30.46 inches Hg (1031.6 mb)
Winds:from the E (80 degrees) at 6 MPH (5 knots; 2.6 m/s)
Visibility:10 or more sm (16+ km)
Ceiling:2300 feet AGL
Clouds: overcast cloud deck at 2300 feet AGL
QC Flag:automated observation with no human augmentation
Text:KOCQ 021715Z AUTO 09006KT 10SM OVC023 15/09 A3047 RMK AO1 T01490094
Temperature: 14.9°C ( 59°F)
Dewpoint: 9.4°C ( 49°F) [RH = 70%]
Pressure (altimeter):30.47 inches Hg (1031.9 mb)
Winds:from the E (90 degrees) at 7 MPH (6 knots; 3.1 m/s)
Visibility:10 or more sm (16+ km)
Ceiling:2300 feet AGL
Clouds: overcast cloud deck at 2300 feet AGL
QC Flag:automated observation with no human augmentation
Text:KOCQ 021655Z AUTO 09005KT 10SM OVC023 15/09 A3047 RMK AO1 T01470092
Temperature: 14.7°C ( 58°F)
Dewpoint: 9.2°C ( 49°F) [RH = 70%]
Pressure (altimeter):30.47 inches Hg (1031.9 mb)
Winds:from the E (90 degrees) at 6 MPH (5 knots; 2.6 m/s)
Visibility:10 or more sm (16+ km)
Ceiling:2300 feet AGL
Clouds: overcast cloud deck at 2300 feet AGL
QC Flag:automated observation with no human augmentation
Text:KOCQ 021635Z AUTO 11006KT 10SM OVC023 14/09 A3047 RMK AO1 T01410092
Temperature: 14.1°C ( 57°F)
Dewpoint: 9.2°C ( 49°F) [RH = 72%]
Pressure (altimeter):30.47 inches Hg (1031.9 mb)
Winds:from the ESE (110 degrees) at 7 MPH (6 knots; 3.1 m/s)
Visibility:10 or more sm (16+ km)
Ceiling:2300 feet AGL
Clouds: overcast cloud deck at 2300 feet AGL
QC Flag:automated observation with no human augmentation
Text:KOCQ 021615Z AUTO 04006KT 10SM OVC021 14/09 A3047 RMK AO1 T01400094
Temperature: 14.0°C ( 57°F)
Dewpoint: 9.4°C ( 49°F) [RH = 74%]
Pressure (altimeter):30.47 inches Hg (1031.9 mb)
Winds:from the NE (40 degrees) at 7 MPH (6 knots; 3.1 m/s)
Visibility:10 or more sm (16+ km)
Ceiling:2100 feet AGL
Clouds: overcast cloud deck at 2100 feet AGL
QC Flag:automated observation with no human augmentation
Text:KOCQ 021555Z AUTO 05005KT 10SM OVC021 14/10 A3047 RMK AO1 T01400097
Temperature: 14.0°C ( 57°F)
Dewpoint: 9.7°C ( 49°F) [RH = 75%]
Pressure (altimeter):30.47 inches Hg (1031.9 mb)
Winds:from the NE (50 degrees) at 6 MPH (5 knots; 2.6 m/s)
Visibility:10 or more sm (16+ km)
Ceiling:2100 feet AGL
Clouds: overcast cloud deck at 2100 feet AGL
QC Flag:automated observation with no human augmentation
Text:KOCQ 021535Z AUTO 08005KT 10SM OVC021 14/10 A3047 RMK AO1 T01400097
Temperature: 14.0°C ( 57°F)
Dewpoint: 9.7°C ( 49°F) [RH = 75%]
Pressure (altimeter):30.47 inches Hg (1031.9 mb)
Winds:from the E (80 degrees) at 6 MPH (5 knots; 2.6 m/s)
Visibility:10 or more sm (16+ km)
Ceiling:2100 feet AGL
Clouds: overcast cloud deck at 2100 feet AGL
QC Flag:automated observation with no human augmentation
Text:KOCQ 021515Z AUTO 08004KT 10SM OVC021 14/10 A3047 RMK AO1 T01370100
Temperature: 13.7°C ( 57°F)
Dewpoint: 10.0°C ( 50°F) [RH = 78%]
Pressure (altimeter):30.47 inches Hg (1031.9 mb)
Winds:from the E (80 degrees) at 5 MPH (4 knots; 2.1 m/s)
Visibility:10 or more sm (16+ km)
Ceiling:2100 feet AGL
Clouds: overcast cloud deck at 2100 feet AGL
QC Flag:automated observation with no human augmentation
Text:KOCQ 021455Z AUTO 09004KT 10SM OVC021 14/10 A3046 RMK AO1 T01360097
Temperature: 13.6°C ( 56°F)
Dewpoint: 9.7°C ( 49°F) [RH = 77%]
Pressure (altimeter):30.46 inches Hg (1031.6 mb)
Winds:from the E (90 degrees) at 5 MPH (4 knots; 2.1 m/s)
Visibility:10 or more sm (16+ km)
Ceiling:2100 feet AGL
Clouds: overcast cloud deck at 2100 feet AGL
QC Flag:automated observation with no human augmentation
Text:KOCQ 021435Z AUTO 08003KT 10SM OVC021 13/11 A3046 RMK AO1 T01340111
Temperature: 13.4°C ( 56°F)
Dewpoint: 11.1°C ( 52°F) [RH = 86%]
Pressure (altimeter):30.46 inches Hg (1031.6 mb)
Winds:from the E (80 degrees) at 3 MPH (3 knots; 1.5 m/s)
Visibility:10 or more sm (16+ km)
Ceiling:2100 feet AGL
Clouds: overcast cloud deck at 2100 feet AGL
QC Flag:automated observation with no human augmentation
Text:KOCQ 021415Z AUTO 04004KT 10SM OVC021 13/11 A3045 RMK AO1 T01290110
Temperature: 12.9°C ( 55°F)
Dewpoint: 11.0°C ( 52°F) [RH = 88%]
Pressure (altimeter):30.45 inches Hg (1031.2 mb)
Winds:from the NE (40 degrees) at 5 MPH (4 knots; 2.1 m/s)
Visibility:10 or more sm (16+ km)
Ceiling:2100 feet AGL
Clouds: overcast cloud deck at 2100 feet AGL
QC Flag:automated observation with no human augmentation
Text:KOCQ 021355Z AUTO 03004KT 10SM OVC021 13/11 A3044 RMK AO1 T01250111
Temperature: 12.5°C ( 54°F)
Dewpoint: 11.1°C ( 52°F) [RH = 91%]
Pressure (altimeter):30.44 inches Hg (1030.9 mb)
Winds:from the NNE (30 degrees) at 5 MPH (4 knots; 2.1 m/s)
Visibility:10 or more sm (16+ km)
Ceiling:2100 feet AGL
Clouds: overcast cloud deck at 2100 feet AGL
QC Flag:automated observation with no human augmentation
Text:KOCQ 021335Z AUTO 03005KT 10SM OVC019 12/11 A3044 RMK AO1 T01220112
Temperature: 12.2°C ( 54°F)
Dewpoint: 11.2°C ( 52°F) [RH = 94%]
Pressure (altimeter):30.44 inches Hg (1030.9 mb)
Winds:from the NNE (30 degrees) at 6 MPH (5 knots; 2.6 m/s)
Visibility:10 or more sm (16+ km)
Ceiling:1900 feet AGL
Clouds: overcast cloud deck at 1900 feet AGL
QC Flag:automated observation with no human augmentation
Text:KOCQ 021315Z AUTO 01003KT 10SM OVC019 12/11 A3044 RMK AO1 T01200113
Temperature: 12.0°C ( 54°F)
Dewpoint: 11.3°C ( 52°F) [RH = 95%]
Pressure (altimeter):30.44 inches Hg (1030.9 mb)
Winds:from the N (10 degrees) at 3 MPH (3 knots; 1.5 m/s)
Visibility:10 or more sm (16+ km)
Ceiling:1900 feet AGL
Clouds: overcast cloud deck at 1900 feet AGL
QC Flag:automated observation with no human augmentation
Text:KOCQ 021255Z AUTO 01003KT 10SM OVC019 12/12 A3042 RMK AO1 T01160115
Temperature: 11.6°C ( 53°F)
Dewpoint: 11.5°C ( 53°F) [RH = 99%]
Pressure (altimeter):30.42 inches Hg (1030.2 mb)
Winds:from the N (10 degrees) at 3 MPH (3 knots; 1.5 m/s)
Visibility:10 or more sm (16+ km)
Ceiling:1900 feet AGL
Clouds: overcast cloud deck at 1900 feet AGL
QC Flag:automated observation with no human augmentation
Text:KOCQ 021235Z AUTO 00000KT 10SM OVC019 12/12 A3042 RMK AO1 T01150115
Temperature: 11.5°C ( 53°F)
Dewpoint: 11.5°C ( 53°F) [RH = 100%]
Pressure (altimeter):30.42 inches Hg (1030.2 mb)
Winds:calm
Visibility:10 or more sm (16+ km)
Ceiling:1900 feet AGL
Clouds: overcast cloud deck at 1900 feet AGL
QC Flag:automated observation with no human augmentation
Text:KOCQ 021215Z AUTO 00000KT 10SM OVC019 11/11 A3042 RMK AO1 T01120112
Temperature: 11.2°C ( 52°F)
Dewpoint: 11.2°C ( 52°F) [RH = 100%]
Pressure (altimeter):30.42 inches Hg (1030.2 mb)
Winds:calm
Visibility:10 or more sm (16+ km)
Ceiling:1900 feet AGL
Clouds: overcast cloud deck at 1900 feet AGL
QC Flag:automated observation with no human augmentation
Text:KOCQ 021155Z AUTO 00000KT 10SM OVC021 11/11 A3041 RMK AO1 T01110111 10111 20100
Temperature: 11.1°C ( 52°F)
Dewpoint: 11.1°C ( 52°F) [RH = 100%]
Pressure (altimeter):30.41 inches Hg (1029.9 mb)
Winds:calm
Visibility:10 or more sm (16+ km)
Ceiling:2100 feet AGL
Clouds: overcast cloud deck at 2100 feet AGL
QC Flag:automated observation with no human augmentation
Text:KOCQ 021135Z AUTO 00000KT 10SM OVC023 11/11 A3041 RMK AO1 T01100110
Temperature: 11.0°C ( 52°F)
Dewpoint: 11.0°C ( 52°F) [RH = 100%]
Pressure (altimeter):30.41 inches Hg (1029.9 mb)
Winds:calm
Visibility:10 or more sm (16+ km)
Ceiling:2300 feet AGL
Clouds: overcast cloud deck at 2300 feet AGL
QC Flag:automated observation with no human augmentation
Text:KOCQ 021115Z AUTO 00000KT 10SM OVC025 11/11 A3040 RMK AO1 T01100110
Temperature: 11.0°C ( 52°F)
Dewpoint: 11.0°C ( 52°F) [RH = 100%]
Pressure (altimeter):30.40 inches Hg (1029.5 mb)
Winds:calm
Visibility:10 or more sm (16+ km)
Ceiling:2500 feet AGL
Clouds: overcast cloud deck at 2500 feet AGL
QC Flag:automated observation with no human augmentation
Text:KOCQ 021055Z AUTO 00000KT 10SM OVC025 11/11 A3039 RMK AO1 T01080108
Temperature: 10.8°C ( 51°F)
Dewpoint: 10.8°C ( 51°F) [RH = 100%]
Pressure (altimeter):30.39 inches Hg (1029.2 mb)
Winds:calm
Visibility:10 or more sm (16+ km)
Ceiling:2500 feet AGL
Clouds: overcast cloud deck at 2500 feet AGL
QC Flag:automated observation with no human augmentation
Text:KOCQ 021035Z AUTO 00000KT 10SM SCT013 SCT019 OVC025 11/11 A3038 RMK AO1 T01070107
Temperature: 10.7°C ( 51°F)
Dewpoint: 10.7°C ( 51°F) [RH = 100%]
Pressure (altimeter):30.38 inches Hg (1028.9 mb)
Winds:calm
Visibility:10 or more sm (16+ km)
Ceiling:2500 feet AGL
Clouds: scattered clouds at 1300 feet AGL, scattered clouds at 1900 feet AGL, overcast cloud deck at 2500 feet AGL
QC Flag:automated observation with no human augmentation
Text:KOCQ 021015Z AUTO 00000KT 10SM OVC015 11/11 A3038 RMK AO1 T01060106
Temperature: 10.6°C ( 51°F)
Dewpoint: 10.6°C ( 51°F) [RH = 100%]
Pressure (altimeter):30.38 inches Hg (1028.9 mb)
Winds:calm
Visibility:10 or more sm (16+ km)
Ceiling:1500 feet AGL
Clouds: overcast cloud deck at 1500 feet AGL
QC Flag:automated observation with no human augmentation
Text:KOCQ 020955Z AUTO 02003KT 10SM BKN015 OVC028 11/11 A3038 RMK AO1 T01050105
Temperature: 10.5°C ( 51°F)
Dewpoint: 10.5°C ( 51°F) [RH = 100%]
Pressure (altimeter):30.38 inches Hg (1028.9 mb)
Winds:from the NNE (20 degrees) at 3 MPH (3 knots; 1.5 m/s)
Visibility:10 or more sm (16+ km)
Ceiling:1500 feet AGL
Clouds: broken clouds at 1500 feet AGL, overcast cloud deck at 2800 feet AGL
QC Flag:automated observation with no human augmentation
Text:KOCQ 020935Z AUTO 36003KT 10SM SCT013 SCT020 OVC026 11/11 A3038 RMK AO1 T01050105
Temperature: 10.5°C ( 51°F)
Dewpoint: 10.5°C ( 51°F) [RH = 100%]
Pressure (altimeter):30.38 inches Hg (1028.9 mb)
Winds:from the N (360 degrees) at 3 MPH (3 knots; 1.5 m/s)
Visibility:10 or more sm (16+ km)
Ceiling:2600 feet AGL
Clouds: scattered clouds at 1300 feet AGL, scattered clouds at 2000 feet AGL, overcast cloud deck at 2600 feet AGL
QC Flag:automated observation with no human augmentation
Text:KOCQ 020915Z AUTO 00000KT 10SM SCT014 OVC024 10/10 A3037 RMK AO1 T01030103
Temperature: 10.3°C ( 51°F)
Dewpoint: 10.3°C ( 51°F) [RH = 100%]
Pressure (altimeter):30.37 inches Hg (1028.5 mb)
Winds:calm
Visibility:10 or more sm (16+ km)
Ceiling:2400 feet AGL
Clouds: scattered clouds at 1400 feet AGL, overcast cloud deck at 2400 feet AGL
QC Flag:automated observation with no human augmentation
Text:KOCQ 020855Z AUTO 00000KT 10SM SCT009 BKN017 OVC024 10/10 A3038 RMK AO1 T01020102
Temperature: 10.2°C ( 50°F)
Dewpoint: 10.2°C ( 50°F) [RH = 100%]
Pressure (altimeter):30.38 inches Hg (1028.9 mb)
Winds:calm
Visibility:10 or more sm (16+ km)
Ceiling:1700 feet AGL
Clouds: scattered clouds at 900 feet AGL, broken clouds at 1700 feet AGL, overcast cloud deck at 2400 feet AGL
QC Flag:automated observation with no human augmentation
Text:KOCQ 020835Z AUTO 00000KT 10SM SCT009 OVC015 10/10 A3037 RMK AO1 T01020102
Temperature: 10.2°C ( 50°F)
Dewpoint: 10.2°C ( 50°F) [RH = 100%]
Pressure (altimeter):30.37 inches Hg (1028.5 mb)
Winds:calm
Visibility:10 or more sm (16+ km)
Ceiling:1500 feet AGL
Clouds: scattered clouds at 900 feet AGL, overcast cloud deck at 1500 feet AGL
QC Flag:automated observation with no human augmentation
Text:KOCQ 020815Z AUTO 00000KT 10SM OVC007 10/10 A3037 RMK AO1 T01010101
Temperature: 10.1°C ( 50°F)
Dewpoint: 10.1°C ( 50°F) [RH = 100%]
Pressure (altimeter):30.37 inches Hg (1028.5 mb)
Winds:calm
Visibility:10 or more sm (16+ km)
Ceiling:700 feet AGL
Clouds: overcast cloud deck at 700 feet AGL
QC Flag:automated observation with no human augmentation
Text:KOCQ 020755Z AUTO 36003KT 10SM OVC007 10/10 A3037 RMK AO1 T01010101
Temperature: 10.1°C ( 50°F)
Dewpoint: 10.1°C ( 50°F) [RH = 100%]
Pressure (altimeter):30.37 inches Hg (1028.5 mb)
Winds:from the N (360 degrees) at 3 MPH (3 knots; 1.5 m/s)
Visibility:10 or more sm (16+ km)
Ceiling:700 feet AGL
Clouds: overcast cloud deck at 700 feet AGL
QC Flag:automated observation with no human augmentation
Text:KOCQ 020735Z AUTO 01003KT 10SM OVC007 10/10 A3037 RMK AO1 T01000100
Temperature: 10.0°C ( 50°F)
Dewpoint: 10.0°C ( 50°F) [RH = 100%]
Pressure (altimeter):30.37 inches Hg (1028.5 mb)
Winds:from the N (10 degrees) at 3 MPH (3 knots; 1.5 m/s)
Visibility:10 or more sm (16+ km)
Ceiling:700 feet AGL
Clouds: overcast cloud deck at 700 feet AGL
QC Flag:automated observation with no human augmentation
Text:KOCQ 020715Z AUTO 02005KT 10SM OVC007 10/10 A3037 RMK AO1 T01000100
Temperature: 10.0°C ( 50°F)
Dewpoint: 10.0°C ( 50°F) [RH = 100%]
Pressure (altimeter):30.37 inches Hg (1028.5 mb)
Winds:from the NNE (20 degrees) at 6 MPH (5 knots; 2.6 m/s)
Visibility:10 or more sm (16+ km)
Ceiling:700 feet AGL
Clouds: overcast cloud deck at 700 feet AGL
QC Flag:automated observation with no human augmentation
Text:KOCQ 020655Z AUTO 02005KT 10SM OVC009 10/10 A3036 RMK AO1 T01000100
Temperature: 10.0°C ( 50°F)
Dewpoint: 10.0°C ( 50°F) [RH = 100%]
Pressure (altimeter):30.36 inches Hg (1028.2 mb)
Winds:from the NNE (20 degrees) at 6 MPH (5 knots; 2.6 m/s)
Visibility:10 or more sm (16+ km)
Ceiling:900 feet AGL
Clouds: overcast cloud deck at 900 feet AGL
QC Flag:automated observation with no human augmentation
Text:KOCQ 020635Z AUTO 04005KT 10SM OVC009 10/10 A3036 RMK AO1 T01000100
Temperature: 10.0°C ( 50°F)
Dewpoint: 10.0°C ( 50°F) [RH = 100%]
Pressure (altimeter):30.36 inches Hg (1028.2 mb)
Winds:from the NE (40 degrees) at 6 MPH (5 knots; 2.6 m/s)
Visibility:10 or more sm (16+ km)
Ceiling:900 feet AGL
Clouds: overcast cloud deck at 900 feet AGL
QC Flag:automated observation with no human augmentation
Text:KOCQ 020555Z AUTO 03008KT 10SM OVC009 10/10 A3036 RMK AO1 T01000100 10120 20093 401960007
Temperature: 10.0°C ( 50°F)
Dewpoint: 10.0°C ( 50°F) [RH = 100%]
Pressure (altimeter):30.36 inches Hg (1028.2 mb)
Winds:from the NNE (30 degrees) at 9 MPH (8 knots; 4.1 m/s)
Visibility:10 or more sm (16+ km)
Ceiling:900 feet AGL
Clouds: overcast cloud deck at 900 feet AGL
QC Flag:automated observation with no human augmentation
Text:KOCQ 020535Z AUTO 03006KT 10SM BKN011 10/10 A3037 RMK AO1 T00970097
Temperature: 9.7°C ( 49°F)
Dewpoint: 9.7°C ( 49°F) [RH = 100%]
Pressure (altimeter):30.37 inches Hg (1028.5 mb)
Winds:from the NNE (30 degrees) at 7 MPH (6 knots; 3.1 m/s)
Visibility:10 or more sm (16+ km)
Ceiling:1100 feet AGL
Clouds: broken clouds at 1100 feet AGL
QC Flag:automated observation with no human augmentation
Text:KOCQ 020515Z AUTO 02005KT 10SM CLR 10/10 A3037 RMK AO1 T00970097
Temperature: 9.7°C ( 49°F)
Dewpoint: 9.7°C ( 49°F) [RH = 100%]
Pressure (altimeter):30.37 inches Hg (1028.5 mb)
Winds:from the NNE (20 degrees) at 6 MPH (5 knots; 2.6 m/s)
Visibility:10 or more sm (16+ km)
Ceiling:at least 12,000 feet AGL
Clouds:sky clear below 12,000 feet AGL
QC Flag:automated observation with no human augmentation
Text:KOCQ 020455Z AUTO 02005KT 10SM CLR 10/10 A3036 RMK AO1 T01010098
Temperature: 10.1°C ( 50°F)
Dewpoint: 9.8°C ( 50°F) [RH = 98%]
Pressure (altimeter):30.36 inches Hg (1028.2 mb)
Winds:from the NNE (20 degrees) at 6 MPH (5 knots; 2.6 m/s)
Visibility:10 or more sm (16+ km)
Ceiling:at least 12,000 feet AGL
Clouds:sky clear below 12,000 feet AGL
QC Flag:automated observation with no human augmentation
Text:KOCQ 020435Z AUTO 02004KT 10SM CLR 10/10 A3036 RMK AO1 T01020099
Temperature: 10.2°C ( 50°F)
Dewpoint: 9.9°C ( 50°F) [RH = 98%]
Pressure (altimeter):30.36 inches Hg (1028.2 mb)
Winds:from the NNE (20 degrees) at 5 MPH (4 knots; 2.1 m/s)
Visibility:10 or more sm (16+ km)
Ceiling:at least 12,000 feet AGL
Clouds:sky clear below 12,000 feet AGL
QC Flag:automated observation with no human augmentation
Text:KOCQ 020415Z AUTO 02005KT 10SM CLR 11/10 A3036 RMK AO1 T01070098
Temperature: 10.7°C ( 51°F)
Dewpoint: 9.8°C ( 50°F) [RH = 94%]
Pressure (altimeter):30.36 inches Hg (1028.2 mb)
Winds:from the NNE (20 degrees) at 6 MPH (5 knots; 2.6 m/s)
Visibility:10 or more sm (16+ km)
Ceiling:at least 12,000 feet AGL
Clouds:sky clear below 12,000 feet AGL
QC Flag:automated observation with no human augmentation
Text:KOCQ 020355Z AUTO 02006KT 10SM CLR 11/10 A3035 RMK AO1 T01100095
Temperature: 11.0°C ( 52°F)
Dewpoint: 9.5°C ( 49°F) [RH = 90%]
Pressure (altimeter):30.35 inches Hg (1027.9 mb)
Winds:from the NNE (20 degrees) at 7 MPH (6 knots; 3.1 m/s)
Visibility:10 or more sm (16+ km)
Ceiling:at least 12,000 feet AGL
Clouds:sky clear below 12,000 feet AGL
QC Flag:automated observation with no human augmentation
Text:KOCQ 020335Z AUTO 04006KT 10SM CLR 11/10 A3034 RMK AO1 T01140099
Temperature: 11.4°C ( 53°F)
Dewpoint: 9.9°C ( 50°F) [RH = 90%]
Pressure (altimeter):30.34 inches Hg (1027.5 mb)
Winds:from the NE (40 degrees) at 7 MPH (6 knots; 3.1 m/s)
Visibility:10 or more sm (16+ km)
Ceiling:at least 12,000 feet AGL
Clouds:sky clear below 12,000 feet AGL
QC Flag:automated observation with no human augmentation
Text:KOCQ 020315Z AUTO 03006KT 10SM CLR 12/11 A3034 RMK AO1 T01150105
Temperature: 11.5°C ( 53°F)
Dewpoint: 10.5°C ( 51°F) [RH = 94%]
Pressure (altimeter):30.34 inches Hg (1027.5 mb)
Winds:from the NNE (30 degrees) at 7 MPH (6 knots; 3.1 m/s)
Visibility:10 or more sm (16+ km)
Ceiling:at least 12,000 feet AGL
Clouds:sky clear below 12,000 feet AGL
QC Flag:automated observation with no human augmentation
Text:KOCQ 020255Z AUTO 03005KT 10SM CLR 12/11 A3033 RMK AO1 T01170114
Temperature: 11.7°C ( 53°F)
Dewpoint: 11.4°C ( 53°F) [RH = 98%]
Pressure (altimeter):30.33 inches Hg (1027.2 mb)
Winds:from the NNE (30 degrees) at 6 MPH (5 knots; 2.6 m/s)
Visibility:10 or more sm (16+ km)
Ceiling:at least 12,000 feet AGL
Clouds:sky clear below 12,000 feet AGL
QC Flag:automated observation with no human augmentation
Text:KOCQ 020215Z AUTO 02003KT 10SM CLR 11/11 A3033 RMK AO1 T01090109
Temperature: 10.9°C ( 52°F)
Dewpoint: 10.9°C ( 52°F) [RH = 100%]
Pressure (altimeter):30.33 inches Hg (1027.2 mb)
Winds:from the NNE (20 degrees) at 3 MPH (3 knots; 1.5 m/s)
Visibility:10 or more sm (16+ km)
Ceiling:at least 12,000 feet AGL
Clouds:sky clear below 12,000 feet AGL
QC Flag:automated observation with no human augmentation
Text:KOCQ 020115Z AUTO 00000KT 7SM CLR 10/10 A3031 RMK AO1 T00960096
Temperature: 9.6°C ( 49°F)
Dewpoint: 9.6°C ( 49°F) [RH = 100%]
Pressure (altimeter):30.31 inches Hg (1026.5 mb)
Winds:calm
Visibility: 7 sm ( 11 km)
Ceiling:at least 12,000 feet AGL
Clouds:sky clear below 12,000 feet AGL
QC Flag:automated observation with no human augmentation
Text:KOCQ 020055Z AUTO 00000KT 10SM CLR 11/11 A3031 RMK AO1 T01100110
Temperature: 11.0°C ( 52°F)
Dewpoint: 11.0°C ( 52°F) [RH = 100%]
Pressure (altimeter):30.31 inches Hg (1026.5 mb)
Winds:calm
Visibility:10 or more sm (16+ km)
Ceiling:at least 12,000 feet AGL
Clouds:sky clear below 12,000 feet AGL
QC Flag:automated observation with no human augmentation
Text:KOCQ 020035Z AUTO 00000KT 10SM CLR 11/11 A3030 RMK AO1 T01070107
Temperature: 10.7°C ( 51°F)
Dewpoint: 10.7°C ( 51°F) [RH = 100%]
Pressure (altimeter):30.30 inches Hg (1026.2 mb)
Winds:calm
Visibility:10 or more sm (16+ km)
Ceiling:at least 12,000 feet AGL
Clouds:sky clear below 12,000 feet AGL
QC Flag:automated observation with no human augmentation
Text:KOCQ 020015Z AUTO 00000KT 10SM CLR 12/12 A3030 RMK AO1 T01160116
Temperature: 11.6°C ( 53°F)
Dewpoint: 11.6°C ( 53°F) [RH = 100%]
Pressure (altimeter):30.30 inches Hg (1026.2 mb)
Winds:calm
Visibility:10 or more sm (16+ km)
Ceiling:at least 12,000 feet AGL
Clouds:sky clear below 12,000 feet AGL
QC Flag:automated observation with no human augmentation
Text:KOCQ 012355Z AUTO 00000KT 10SM CLR 12/12 A3029 RMK AO1 T01230118 10196 20123
Temperature: 12.3°C ( 54°F)
Dewpoint: 11.8°C ( 53°F) [RH = 97%]
Pressure (altimeter):30.29 inches Hg (1025.8 mb)
Winds:calm
Visibility:10 or more sm (16+ km)
Ceiling:at least 12,000 feet AGL
Clouds:sky clear below 12,000 feet AGL
QC Flag:automated observation with no human augmentation
Text:KOCQ 012335Z AUTO 00000KT 10SM CLR 15/13 A3029 RMK AO1 T01470126
Temperature: 14.7°C ( 58°F)
Dewpoint: 12.6°C ( 55°F) [RH = 87%]
Pressure (altimeter):30.29 inches Hg (1025.8 mb)
Winds:calm
Visibility:10 or more sm (16+ km)
Ceiling:at least 12,000 feet AGL
Clouds:sky clear below 12,000 feet AGL
QC Flag:automated observation with no human augmentation
Text:KOCQ 012315Z AUTO 00000KT 10SM CLR 15/12 A3029 RMK AO1 T01520124
Temperature: 15.2°C ( 59°F)
Dewpoint: 12.4°C ( 54°F) [RH = 83%]
Pressure (altimeter):30.29 inches Hg (1025.8 mb)
Winds:calm
Visibility:10 or more sm (16+ km)
Ceiling:at least 12,000 feet AGL
Clouds:sky clear below 12,000 feet AGL
QC Flag:automated observation with no human augmentation
Text:KOCQ 012255Z AUTO 00000KT 10SM CLR 16/12 A3028 RMK AO1 T01570121
Temperature: 15.7°C ( 60°F)
Dewpoint: 12.1°C ( 54°F) [RH = 79%]
Pressure (altimeter):30.28 inches Hg (1025.5 mb)
Winds:calm
Visibility:10 or more sm (16+ km)
Ceiling:at least 12,000 feet AGL
Clouds:sky clear below 12,000 feet AGL
QC Flag:automated observation with no human augmentation
Text:KOCQ 012235Z AUTO 06003KT 10SM CLR 17/12 A3028 RMK AO1 T01660117
Temperature: 16.6°C ( 62°F)
Dewpoint: 11.7°C ( 53°F) [RH = 73%]
Pressure (altimeter):30.28 inches Hg (1025.5 mb)
Winds:from the ENE (60 degrees) at 3 MPH (3 knots; 1.5 m/s)
Visibility:10 or more sm (16+ km)
Ceiling:at least 12,000 feet AGL
Clouds:sky clear below 12,000 feet AGL
QC Flag:automated observation with no human augmentation
Text:KOCQ 012215Z AUTO 06006KT 10SM CLR 18/11 A3028 RMK AO1 T01780110
Temperature: 17.8°C ( 64°F)
Dewpoint: 11.0°C ( 52°F) [RH = 64%]
Pressure (altimeter):30.28 inches Hg (1025.5 mb)
Winds:from the ENE (60 degrees) at 7 MPH (6 knots; 3.1 m/s)
Visibility:10 or more sm (16+ km)
Ceiling:at least 12,000 feet AGL
Clouds:sky clear below 12,000 feet AGL
QC Flag:automated observation with no human augmentation
Text:KOCQ 012155Z AUTO 08005KT 10SM CLR 18/11 A3027 RMK AO1 T01800112
Temperature: 18.0°C ( 64°F)
Dewpoint: 11.2°C ( 52°F) [RH = 64%]
Pressure (altimeter):30.27 inches Hg (1025.1 mb)
Winds:from the E (80 degrees) at 6 MPH (5 knots; 2.6 m/s)
Visibility:10 or more sm (16+ km)
Ceiling:at least 12,000 feet AGL
Clouds:sky clear below 12,000 feet AGL
QC Flag:automated observation with no human augmentation
Text:KOCQ 012135Z AUTO 09004KT 10SM CLR 17/12 A3027 RMK AO1 T01700116
Temperature: 17.0°C ( 63°F)
Dewpoint: 11.6°C ( 53°F) [RH = 70%]
Pressure (altimeter):30.27 inches Hg (1025.1 mb)
Winds:from the E (90 degrees) at 5 MPH (4 knots; 2.1 m/s)
Visibility:10 or more sm (16+ km)
Ceiling:at least 12,000 feet AGL
Clouds:sky clear below 12,000 feet AGL
QC Flag:automated observation with no human augmentation
Text:KOCQ 012115Z AUTO 09005KT 10SM CLR 18/12 A3027 RMK AO1 T01770116
Temperature: 17.7°C ( 64°F)
Dewpoint: 11.6°C ( 53°F) [RH = 67%]
Pressure (altimeter):30.27 inches Hg (1025.1 mb)
Winds:from the E (90 degrees) at 6 MPH (5 knots; 2.6 m/s)
Visibility:10 or more sm (16+ km)
Ceiling:at least 12,000 feet AGL
Clouds:sky clear below 12,000 feet AGL
QC Flag:automated observation with no human augmentation
Text:KOCQ 012055Z AUTO 09007KT 10SM CLR 19/11 A3027 RMK AO1 T01910113
Temperature: 19.1°C ( 66°F)
Dewpoint: 11.3°C ( 52°F) [RH = 61%]
Pressure (altimeter):30.27 inches Hg (1025.1 mb)
Winds:from the E (90 degrees) at 8 MPH (7 knots; 3.6 m/s)
Visibility:10 or more sm (16+ km)
Ceiling:at least 12,000 feet AGL
Clouds:sky clear below 12,000 feet AGL
QC Flag:automated observation with no human augmentation
Text:KOCQ 012035Z AUTO 09007KT 10SM CLR 19/11 A3027 RMK AO1 T01890110
Temperature: 18.9°C ( 66°F)
Dewpoint: 11.0°C ( 52°F) [RH = 60%]
Pressure (altimeter):30.27 inches Hg (1025.1 mb)
Winds:from the E (90 degrees) at 8 MPH (7 knots; 3.6 m/s)
Visibility:10 or more sm (16+ km)
Ceiling:at least 12,000 feet AGL
Clouds:sky clear below 12,000 feet AGL
QC Flag:automated observation with no human augmentation
Text:KOCQ 012015Z AUTO 06006KT 10SM CLR 19/10 A3027 RMK AO1 T01910104
Temperature: 19.1°C ( 66°F)
Dewpoint: 10.4°C ( 51°F) [RH = 57%]
Pressure (altimeter):30.27 inches Hg (1025.1 mb)
Winds:from the ENE (60 degrees) at 7 MPH (6 knots; 3.1 m/s)
Visibility:10 or more sm (16+ km)
Ceiling:at least 12,000 feet AGL
Clouds:sky clear below 12,000 feet AGL
QC Flag:automated observation with no human augmentation
Text:KOCQ 011955Z AUTO 09005KT 10SM SCT120 19/09 A3027 RMK AO1 T01890093
Temperature: 18.9°C ( 66°F)
Dewpoint: 9.3°C ( 49°F) [RH = 54%]
Pressure (altimeter):30.27 inches Hg (1025.1 mb)
Winds:from the E (90 degrees) at 6 MPH (5 knots; 2.6 m/s)
Visibility:10 or more sm (16+ km)
Ceiling:at least 12,000 feet AGL
Clouds: scattered clouds at 12000 feet AGL
QC Flag:automated observation with no human augmentation
Text:KOCQ 011935Z AUTO 09006KT 10SM SCT120 20/08 A3027 RMK AO1 T01950075
Temperature: 19.5°C ( 67°F)
Dewpoint: 7.5°C ( 46°F) [RH = 46%]
Pressure (altimeter):30.27 inches Hg (1025.1 mb)
Winds:from the E (90 degrees) at 7 MPH (6 knots; 3.1 m/s)
Visibility:10 or more sm (16+ km)
Ceiling:at least 12,000 feet AGL
Clouds: scattered clouds at 12000 feet AGL
QC Flag:automated observation with no human augmentation
Text:KOCQ 011915Z AUTO 08005KT 10SM CLR 19/06 A3027 RMK AO1 T01890064
Temperature: 18.9°C ( 66°F)
Dewpoint: 6.4°C ( 44°F) [RH = 44%]
Pressure (altimeter):30.27 inches Hg (1025.1 mb)
Winds:from the E (80 degrees) at 6 MPH (5 knots; 2.6 m/s)
Visibility:10 or more sm (16+ km)
Ceiling:at least 12,000 feet AGL
Clouds:sky clear below 12,000 feet AGL
QC Flag:automated observation with no human augmentation
Text:KOCQ 011855Z AUTO 07006KT 10SM CLR 19/08 A3028 RMK AO1 T01850077
Temperature: 18.5°C ( 65°F)
Dewpoint: 7.7°C ( 46°F) [RH = 49%]
Pressure (altimeter):30.28 inches Hg (1025.5 mb)
Winds:from the ENE (70 degrees) at 7 MPH (6 knots; 3.1 m/s)
Visibility:10 or more sm (16+ km)
Ceiling:at least 12,000 feet AGL
Clouds:sky clear below 12,000 feet AGL
QC Flag:automated observation with no human augmentation
Text:KOCQ 011835Z AUTO 09005KT 10SM CLR 19/10 A3028 RMK AO1 T01860097
Temperature: 18.6°C ( 65°F)
Dewpoint: 9.7°C ( 49°F) [RH = 56%]
Pressure (altimeter):30.28 inches Hg (1025.5 mb)
Winds:from the E (90 degrees) at 6 MPH (5 knots; 2.6 m/s)
Visibility:10 or more sm (16+ km)
Ceiling:at least 12,000 feet AGL
Clouds:sky clear below 12,000 feet AGL
QC Flag:automated observation with no human augmentation
Text:KOCQ 011815Z AUTO 08006KT 10SM CLR 18/09 A3028 RMK AO1 T01840094
Temperature: 18.4°C ( 65°F)
Dewpoint: 9.4°C ( 49°F) [RH = 56%]
Pressure (altimeter):30.28 inches Hg (1025.5 mb)
Winds:from the E (80 degrees) at 7 MPH (6 knots; 3.1 m/s)
Visibility:10 or more sm (16+ km)
Ceiling:at least 12,000 feet AGL
Clouds:sky clear below 12,000 feet AGL
QC Flag:automated observation with no human augmentation
Text:KOCQ 011755Z AUTO 10003KT 10SM CLR 18/09 A3028 RMK AO1 T01810089 10185 20007
Temperature: 18.1°C ( 65°F)
Dewpoint: 8.9°C ( 48°F) [RH = 55%]
Pressure (altimeter):30.28 inches Hg (1025.5 mb)
Winds:from the E (100 degrees) at 3 MPH (3 knots; 1.5 m/s)
Visibility:10 or more sm (16+ km)
Ceiling:at least 12,000 feet AGL
Clouds:sky clear below 12,000 feet AGL
QC Flag:automated observation with no human augmentation
Text:KOCQ 011735Z AUTO 06004KT 10SM CLR 18/09 A3029 RMK AO1 T01810091
Temperature: 18.1°C ( 65°F)
Dewpoint: 9.1°C ( 48°F) [RH = 56%]
Pressure (altimeter):30.29 inches Hg (1025.8 mb)
Winds:from the ENE (60 degrees) at 5 MPH (4 knots; 2.1 m/s)
Visibility:10 or more sm (16+ km)
Ceiling:at least 12,000 feet AGL
Clouds:sky clear below 12,000 feet AGL
QC Flag:automated observation with no human augmentation
Text:KOCQ 011715Z AUTO 11004KT 10SM CLR 18/09 A3029 RMK AO1 T01760089
Temperature: 17.6°C ( 64°F)
Dewpoint: 8.9°C ( 48°F) [RH = 57%]
Pressure (altimeter):30.29 inches Hg (1025.8 mb)
Winds:from the ESE (110 degrees) at 5 MPH (4 knots; 2.1 m/s)
Visibility:10 or more sm (16+ km)
Ceiling:at least 12,000 feet AGL
Clouds:sky clear below 12,000 feet AGL
QC Flag:automated observation with no human augmentation
Text:KOCQ 011655Z AUTO 09005KT 10SM CLR 18/08 A3029 RMK AO1 T01810080
Temperature: 18.1°C ( 65°F)
Dewpoint: 8.0°C ( 46°F) [RH = 52%]
Pressure (altimeter):30.29 inches Hg (1025.8 mb)
Winds:from the E (90 degrees) at 6 MPH (5 knots; 2.6 m/s)
Visibility:10 or more sm (16+ km)
Ceiling:at least 12,000 feet AGL
Clouds:sky clear below 12,000 feet AGL
QC Flag:automated observation with no human augmentation
Text:KOCQ 011635Z AUTO 06005KT 10SM CLR 17/08 A3029 RMK AO1 T01740082
Temperature: 17.4°C ( 63°F)
Dewpoint: 8.2°C ( 47°F) [RH = 55%]
Pressure (altimeter):30.29 inches Hg (1025.8 mb)
Winds:from the ENE (60 degrees) at 6 MPH (5 knots; 2.6 m/s)
Visibility:10 or more sm (16+ km)
Ceiling:at least 12,000 feet AGL
Clouds:sky clear below 12,000 feet AGL
QC Flag:automated observation with no human augmentation
Text:KOCQ 011615Z AUTO 04003KT 10SM CLR 18/08 A3029 RMK AO1 T01770079
Temperature: 17.7°C ( 64°F)
Dewpoint: 7.9°C ( 46°F) [RH = 53%]
Pressure (altimeter):30.29 inches Hg (1025.8 mb)
Winds:from the NE (40 degrees) at 3 MPH (3 knots; 1.5 m/s)
Visibility:10 or more sm (16+ km)
Ceiling:at least 12,000 feet AGL
Clouds:sky clear below 12,000 feet AGL
QC Flag:automated observation with no human augmentation
Text:KOCQ 011555Z AUTO 00000KT 10SM CLR 17/09 A3029 RMK AO1 T01670086
Temperature: 16.7°C ( 62°F)
Dewpoint: 8.6°C ( 47°F) [RH = 59%]
Pressure (altimeter):30.29 inches Hg (1025.8 mb)
Winds:calm
Visibility:10 or more sm (16+ km)
Ceiling:at least 12,000 feet AGL
Clouds:sky clear below 12,000 feet AGL
QC Flag:automated observation with no human augmentation
Text:KOCQ 011515Z AUTO 00000KT 10SM CLR 15/08 A3029 RMK AO1 T01530084
Temperature: 15.3°C ( 60°F)
Dewpoint: 8.4°C ( 47°F) [RH = 63%]
Pressure (altimeter):30.29 inches Hg (1025.8 mb)
Winds:calm
Visibility:10 or more sm (16+ km)
Ceiling:at least 12,000 feet AGL
Clouds:sky clear below 12,000 feet AGL
QC Flag:automated observation with no human augmentation
Text:KOCQ 011455Z AUTO 00000KT 10SM 14/09 A3029 RMK AO1 T01380085
Temperature: 13.8°C ( 57°F)
Dewpoint: 8.5°C ( 47°F) [RH = 70%]
Pressure (altimeter):30.29 inches Hg (1025.8 mb)
Winds:calm
Visibility:10 or more sm (16+ km)
QC Flag:automated observation with no human augmentation
Text:KOCQ 011415Z AUTO 00000KT 10SM CLR 10/09 A3029 RMK AO1 T00980090
Temperature: 9.8°C ( 50°F)
Dewpoint: 9.0°C ( 48°F) [RH = 95%]
Pressure (altimeter):30.29 inches Hg (1025.8 mb)
Winds:calm
Visibility:10 or more sm (16+ km)
Ceiling:at least 12,000 feet AGL
Clouds:sky clear below 12,000 feet AGL
QC Flag:automated observation with no human augmentation
Text:KOCQ 011355Z AUTO 00000KT 10SM CLR 08/08 A3028 RMK AO1 T00840084
Temperature: 8.4°C ( 47°F)
Dewpoint: 8.4°C ( 47°F) [RH = 100%]
Pressure (altimeter):30.28 inches Hg (1025.5 mb)
Winds:calm
Visibility:10 or more sm (16+ km)
Ceiling:at least 12,000 feet AGL
Clouds:sky clear below 12,000 feet AGL
QC Flag:automated observation with no human augmentation
Text:KOCQ 011335Z AUTO 00000KT 10SM CLR 07/07 A3028 RMK AO1 T00710071
Temperature: 7.1°C ( 45°F)
Dewpoint: 7.1°C ( 45°F) [RH = 100%]
Pressure (altimeter):30.28 inches Hg (1025.5 mb)
Winds:calm
Visibility:10 or more sm (16+ km)
Ceiling:at least 12,000 feet AGL
Clouds:sky clear below 12,000 feet AGL
QC Flag:automated observation with no human augmentation
Text:KOCQ 011315Z AUTO 00000KT 7SM CLR 06/06 A3028 RMK AO1 T00590059
Temperature: 5.9°C ( 43°F)
Dewpoint: 5.9°C ( 43°F) [RH = 100%]
Pressure (altimeter):30.28 inches Hg (1025.5 mb)
Winds:calm
Visibility: 7 sm ( 11 km)
Ceiling:at least 12,000 feet AGL
Clouds:sky clear below 12,000 feet AGL
QC Flag:automated observation with no human augmentation
Text:KOCQ 011255Z AUTO 00000KT 7SM CLR 04/04 A3027 RMK AO1 T00350035
Temperature: 3.5°C ( 38°F)
Dewpoint: 3.5°C ( 38°F) [RH = 100%]
Pressure (altimeter):30.27 inches Hg (1025.1 mb)
Winds:calm
Visibility: 7 sm ( 11 km)
Ceiling:at least 12,000 feet AGL
Clouds:sky clear below 12,000 feet AGL
QC Flag:automated observation with no human augmentation
Text:KOCQ 011235Z AUTO 00000KT 5SM SCT003 02/02 A3027 RMK AO1 T00170017
Temperature: 1.7°C ( 35°F)
Dewpoint: 1.7°C ( 35°F) [RH = 100%]
Pressure (altimeter):30.27 inches Hg (1025.1 mb)
Winds:calm
Visibility: 5 sm ( 8 km)
Ceiling:at least 12,000 feet AGL
Clouds: scattered clouds at 300 feet AGL
QC Flag:automated observation with no human augmentation
Text:KOCQ 011215Z AUTO 00000KT 1/2SM BKN003 01/01 A3027 RMK AO1 T00110011
Temperature: 1.1°C ( 34°F)
Dewpoint: 1.1°C ( 34°F) [RH = 100%]
Pressure (altimeter):30.27 inches Hg (1025.1 mb)
Winds:calm
Visibility: 0.50 sm ( 0.80 km)
Ceiling:300 feet AGL
Clouds: broken clouds at 300 feet AGL
QC Flag:automated observation with no human augmentation
Text:KOCQ 011155Z AUTO 00000KT 2SM SCT003 01/01 A3027 RMK AO1 T00110011 10040 20007
Temperature: 1.1°C ( 34°F)
Dewpoint: 1.1°C ( 34°F) [RH = 100%]
Pressure (altimeter):30.27 inches Hg (1025.1 mb)
Winds:calm
Visibility: 2.00 sm ( 3.22 km)
Ceiling:at least 12,000 feet AGL
Clouds: scattered clouds at 300 feet AGL
QC Flag:automated observation with no human augmentation
Text:KOCQ 011135Z AUTO 00000KT 3/4SM OVC003 01/01 A3026 RMK AO1 T00110011
Temperature: 1.1°C ( 34°F)
Dewpoint: 1.1°C ( 34°F) [RH = 100%]
Pressure (altimeter):30.26 inches Hg (1024.8 mb)
Winds:calm
Visibility: 0.75 sm ( 1.21 km)
Ceiling:300 feet AGL
Clouds: overcast cloud deck at 300 feet AGL
QC Flag:automated observation with no human augmentation
Text:KOCQ 011115Z AUTO 00000KT 4SM SCT002 02/02 A3026 RMK AO1 T00200020
Temperature: 2.0°C ( 36°F)
Dewpoint: 2.0°C ( 36°F) [RH = 100%]
Pressure (altimeter):30.26 inches Hg (1024.8 mb)
Winds:calm
Visibility: 4 sm ( 6 km)
Ceiling:at least 12,000 feet AGL
Clouds: scattered clouds at 200 feet AGL
QC Flag:automated observation with no human augmentation
Text:KOCQ 011055Z AUTO 00000KT 1/2SM OVC002 02/02 A3025 RMK AO1 T00150015
Temperature: 1.5°C ( 35°F)
Dewpoint: 1.5°C ( 35°F) [RH = 100%]
Pressure (altimeter):30.25 inches Hg (1024.5 mb)
Winds:calm
Visibility: 0.50 sm ( 0.80 km)
Ceiling:200 feet AGL
Clouds: overcast cloud deck at 200 feet AGL
QC Flag:automated observation with no human augmentation
Text:KOCQ 011035Z AUTO 00000KT 1/2SM OVC002 01/01 A3025 RMK AO1 T00120012
Temperature: 1.2°C ( 34°F)
Dewpoint: 1.2°C ( 34°F) [RH = 100%]
Pressure (altimeter):30.25 inches Hg (1024.5 mb)
Winds:calm
Visibility: 0.50 sm ( 0.80 km)
Ceiling:200 feet AGL
Clouds: overcast cloud deck at 200 feet AGL
QC Flag:automated observation with no human augmentation
Text:KOCQ 011015Z AUTO 00000KT 1 3/4SM VV007 02/02 A3025 RMK AO1 VIS 3/4V5 T00170017
Temperature: 1.7°C ( 35°F)
Dewpoint: 1.7°C ( 35°F) [RH = 100%]
Pressure (altimeter):30.25 inches Hg (1024.5 mb)
Winds:calm
Visibility: 1.75 sm ( 2.82 km)
Ceiling:indefinite ceiling with vertical visibility of 700 feet AGL
Clouds:obscured sky
QC Flag:automated observation with no human augmentation
Text:KOCQ 010955Z AUTO 00000KT 1SM VV007 03/03 A3025 RMK AO1 T00330033
Temperature: 3.3°C ( 38°F)
Dewpoint: 3.3°C ( 38°F) [RH = 100%]
Pressure (altimeter):30.25 inches Hg (1024.5 mb)
Winds:calm
Visibility: 1.00 sm ( 1.61 km)
Ceiling:indefinite ceiling with vertical visibility of 700 feet AGL
Clouds:obscured sky
QC Flag:automated observation with no human augmentation
Text:KOCQ 010835Z AUTO 00000KT 3SM CLR 03/03 A3023 RMK AO1 T00300030
Temperature: 3.0°C ( 37°F)
Dewpoint: 3.0°C ( 37°F) [RH = 100%]
Pressure (altimeter):30.23 inches Hg (1023.8 mb)
Winds:calm
Visibility: 3 sm ( 5 km)
Ceiling:at least 12,000 feet AGL
Clouds:sky clear below 12,000 feet AGL
QC Flag:automated observation with no human augmentation
Text:KOCQ 010815Z AUTO 00000KT 10SM CLR 02/02 A3022 RMK AO1 T00210021
Temperature: 2.1°C ( 36°F)
Dewpoint: 2.1°C ( 36°F) [RH = 100%]
Pressure (altimeter):30.22 inches Hg (1023.5 mb)
Winds:calm
Visibility:10 or more sm (16+ km)
Ceiling:at least 12,000 feet AGL
Clouds:sky clear below 12,000 feet AGL
QC Flag:automated observation with no human augmentation